This is the latest recevied weather packets stored in our database for station/object SR7U-1. If no packets are shown the sender has not sent any weather packets the latest 10 day(s).
| Time | Temp. | Humidity | Pressure | Rain* | Wind** | Luminosity | Snow |
|---|---|---|---|---|---|---|---|
| 1777740780 | 20.56° C | 38% | 1020.5 hPa | - | - | - | - |
| 1777739922 | 21.11° C | 38% | 1020.6 hPa | - | - | - | - |
| 1777739156 | 21.11° C | 36% | 1020.6 hPa | - | - | - | - |
| 1777738335 | 21.67° C | 35% | 1020.7 hPa | - | - | - | - |
| 1777737545 | 21.67° C | 35% | 1020.8 hPa | - | - | - | - |
| 1777736754 | 21.67° C | 33% | 1021.1 hPa | - | - | - | - |
| 1777735970 | 22.22° C | 34% | 1021 hPa | - | - | - | - |
| 1777735230 | 22.22° C | 33% | 1021.2 hPa | - | - | - | - |
| 1777734495 | 20.56° C | 35% | 1021.3 hPa | - | - | - | - |
| 1777733740 | 21.11° C | 36% | 1021.4 hPa | - | - | - | - |
| 1777732901 | 22.22° C | 32% | 1021.4 hPa | - | - | - | - |
| 1777732120 | 21.67° C | 32% | 1021.5 hPa | - | - | - | - |
| 1777731309 | 21.11° C | 33% | 1021.7 hPa | - | - | - | - |
| 1777730585 | 21.11° C | 34% | 1021.8 hPa | - | - | - | - |
| 1777729705 | 21.67° C | 33% | 1021.9 hPa | - | - | - | - |
| 1777728865 | 21.11° C | 35% | 1022.1 hPa | - | - | - | - |
| 1777727970 | 21.67° C | 33% | 1022.3 hPa | - | - | - | - |
| 1777727175 | 20.56° C | 35% | 1022.4 hPa | - | - | - | - |
| 1777726375 | 20.56° C | 36% | 1022.7 hPa | - | - | - | - |
| 1777725535 | 20.56° C | 37% | 1022.6 hPa | - | - | - | - |
| 1777724815 | 21.11° C | 35% | 1023 hPa | - | - | - | - |
| 1777723998 | 20° C | 36% | 1023.2 hPa | - | - | - | - |
| 1777723180 | 20° C | 36% | 1023.3 hPa | - | - | - | - |
| 1777722440 | 19.44° C | 37% | 1023.5 hPa | - | - | - | - |
| 1777721705 | 20° C | 38% | 1023.7 hPa | - | - | - | - |
* Rain since midnight (hover to see other rain measurements)
** Current wind speed in m/s (hover to see current wind gust speed)